createdAt,value
2018-03-21T00:00:54.609Z,11.40
2018-03-21T00:03:21.764Z,11.20
2018-03-21T00:05:48.148Z,11.25
2018-03-21T00:08:14.552Z,11.45
2018-03-21T00:10:41.050Z,10.50
2018-03-21T00:13:08.160Z,11.32
2018-03-21T00:15:34.541Z,10.20
2018-03-21T00:18:00.979Z,11.73
2018-03-21T00:20:27.467Z,9.88
2018-03-21T00:22:53.842Z,11.10
2018-03-21T00:25:20.228Z,12.43
2018-03-21T00:27:47.576Z,9.93
2018-03-21T00:30:13.960Z,10.40
2018-03-21T00:32:40.335Z,11.43
2018-03-21T00:35:06.729Z,12.75
2018-03-21T00:37:33.136Z,14.43
2018-03-21T00:40:00.265Z,14.45
2018-03-21T00:42:26.663Z,14.18
2018-03-21T00:44:53.049Z,13.88
2018-03-21T00:47:20.212Z,15.15
2018-03-21T00:49:47.330Z,13.82
2018-03-21T00:52:13.708Z,13.77
2018-03-21T00:54:40.109Z,12.93
2018-03-21T00:57:07.229Z,12.27
2018-03-21T00:59:33.722Z,12.82
2018-03-21T01:02:00.111Z,14.05
2018-03-21T01:04:27.248Z,12.93
2018-03-21T01:06:53.616Z,14.30
2018-03-21T01:09:20.728Z,12.65
2018-03-21T01:11:47.105Z,14.25
2018-03-21T01:14:13.474Z,12.93
2018-03-21T01:16:39.865Z,12.90
2018-03-21T01:19:06.237Z,14.15
2018-03-21T01:21:32.624Z,12.37
2018-03-21T01:23:59.935Z,14.98
2018-03-21T01:26:26.316Z,13.62
2018-03-21T01:28:52.689Z,13.88
2018-03-21T01:31:19.094Z,13.88
2018-03-21T01:33:45.467Z,13.45
2018-03-21T01:36:11.885Z,15.52
2018-03-21T01:38:38.435Z,15.13
2018-03-21T01:41:04.843Z,14.25
2018-03-21T01:43:31.218Z,15.15
2018-03-21T01:45:58.388Z,13.20
2018-03-21T01:48:24.782Z,13.45
2018-03-21T01:50:51.155Z,13.50
2018-03-21T01:53:17.555Z,13.80
2018-03-21T01:55:44.666Z,15.73
2018-03-21T01:58:11.060Z,21.83
2018-03-21T02:00:37.483Z,19.50
2018-03-21T02:03:04.588Z,16.65
2018-03-21T02:05:31.138Z,15.95
2018-03-21T02:07:57.542Z,13.80
2018-03-21T02:10:23.908Z,15.60
2018-03-21T02:12:51.034Z,16.55
2018-03-21T02:15:17.424Z,15.07
2018-03-21T02:17:43.815Z,17.70
2018-03-21T02:20:10.183Z,17.60
2018-03-21T02:22:36.571Z,17.77
2018-03-21T02:25:02.943Z,16.08
2018-03-21T02:27:29.340Z,17.35
2018-03-21T02:29:57.223Z,17.75
2018-03-21T02:32:24.365Z,19.50
2018-03-21T02:34:51.500Z,19.30
2018-03-21T02:37:18.664Z,18.25
2018-03-21T02:39:45.035Z,17.23
2018-03-21T02:42:11.657Z,17.33
2018-03-21T02:44:38.061Z,20.50
2018-03-21T02:47:04.449Z,21.73
2018-03-21T02:49:30.904Z,20.27
2018-03-21T02:51:57.275Z,19.98
2018-03-21T02:54:24.388Z,20.80
2018-03-21T02:56:50.805Z,21.35
2018-03-21T02:59:17.171Z,22.87
2018-03-21T03:01:43.583Z,25.35
2018-03-21T03:04:09.947Z,26.60
2018-03-21T03:06:37.079Z,26.80
2018-03-21T03:09:04.439Z,26.65
2018-03-21T03:11:31.587Z,29.00
2018-03-21T03:13:57.965Z,28.12
2018-03-21T03:16:24.334Z,33.20
2018-03-21T03:18:50.704Z,30.92
2018-03-21T03:21:17.844Z,30.85
2018-03-21T03:23:44.960Z,30.95
2018-03-21T03:26:11.334Z,33.22
2018-03-21T03:28:37.727Z,32.85
2018-03-21T03:31:04.142Z,31.73
2018-03-21T03:33:30.559Z,30.80
2018-03-21T03:35:56.975Z,34.08
2018-03-21T03:38:23.379Z,32.35
2018-03-21T03:40:50.528Z,34.03
2018-03-21T03:43:17.795Z,33.95
2018-03-21T03:45:44.191Z,34.45
2018-03-21T03:48:10.575Z,34.90
2018-03-21T03:50:36.963Z,34.20
2018-03-21T03:53:03.362Z,33.38
2018-03-21T03:55:29.773Z,27.00
2018-03-21T03:57:56.164Z,28.25
2018-03-21T04:00:22.592Z,24.35
2018-03-21T04:02:49.006Z,21.80
2018-03-21T04:05:15.408Z,25.62
2018-03-21T04:07:41.802Z,26.55
2018-03-21T04:10:08.929Z,29.23
2018-03-21T04:12:36.806Z,26.80
2018-03-21T04:15:03.244Z,26.25
2018-03-21T04:17:29.640Z,25.17
2018-03-21T04:19:56.015Z,22.77
2018-03-21T04:22:23.179Z,26.27
2018-03-21T04:24:50.301Z,24.95
2018-03-21T04:27:18.179Z,25.23
2018-03-21T04:29:45.361Z,26.85
2018-03-21T04:32:11.748Z,25.70
2018-03-21T04:34:38.884Z,33.33
2018-03-21T04:37:06.800Z,33.65
2018-03-21T04:39:33.175Z,38.83
2018-03-21T04:41:59.571Z,36.10
2018-03-21T04:44:25.969Z,37.30
2018-03-21T04:46:53.217Z,33.78
2018-03-21T04:49:20.401Z,35.28
2018-03-21T04:51:46.788Z,34.60
2018-03-21T04:54:14.703Z,33.42
2018-03-21T04:56:41.097Z,29.80
2018-03-21T04:59:08.248Z,24.23
2018-03-21T05:01:35.586Z,27.65
2018-03-21T05:04:03.509Z,27.48
2018-03-21T05:06:29.928Z,29.75
2018-03-21T05:08:56.315Z,29.30
2018-03-21T05:11:22.731Z,33.80
2018-03-21T05:13:49.120Z,31.58
2018-03-21T05:16:15.503Z,30.90
2018-03-21T05:18:41.891Z,31.00
2018-03-21T05:21:08.285Z,31.92
2018-03-21T05:23:34.661Z,31.95
2018-03-21T05:26:01.088Z,33.17
2018-03-21T05:28:27.489Z,34.70
2018-03-21T05:30:53.890Z,33.67
2018-03-21T05:33:20.287Z,35.95
2018-03-21T05:35:46.678Z,35.05
2018-03-21T05:38:13.871Z,33.33
2018-03-21T05:40:40.256Z,35.40
2018-03-21T05:43:06.635Z,36.47
2018-03-21T05:45:33.031Z,34.25
2018-03-21T05:47:59.469Z,35.05
2018-03-21T05:50:26.609Z,34.22
2018-03-21T05:52:53.009Z,36.30
2018-03-21T05:55:19.446Z,36.17
2018-03-21T05:57:45.828Z,37.27
2018-03-21T06:00:12.989Z,33.95
2018-03-21T06:02:39.391Z,41.20
2018-03-21T06:05:05.774Z,41.27
2018-03-21T06:07:32.174Z,38.93
2018-03-21T06:09:59.307Z,38.63
2018-03-21T06:12:25.750Z,35.77
2018-03-21T06:14:52.877Z,35.33
2018-03-21T06:17:19.259Z,36.20
2018-03-21T06:19:45.691Z,36.17
2018-03-21T06:22:12.081Z,36.97
2018-03-21T06:24:38.483Z,36.37
2018-03-21T06:27:04.890Z,38.80
2018-03-21T06:29:31.287Z,38.70
2018-03-21T06:31:58.403Z,34.70
2018-03-21T06:34:24.776Z,34.20
2018-03-21T06:36:51.906Z,36.07
2018-03-21T06:39:19.049Z,36.57
2018-03-21T06:41:45.500Z,39.07
2018-03-21T06:44:12.671Z,38.40
2018-03-21T06:46:39.082Z,33.90
2018-03-21T06:49:06.349Z,36.23
2018-03-21T06:51:32.741Z,36.30
2018-03-21T06:53:59.161Z,37.20
2018-03-21T06:56:25.566Z,37.30
2018-03-21T06:58:51.962Z,35.90
2018-03-21T07:01:19.098Z,39.03
2018-03-21T07:03:45.476Z,34.00
2018-03-21T07:06:11.870Z,35.20
2018-03-21T07:08:38.989Z,35.10
2018-03-21T07:11:05.391Z,34.80
2018-03-21T07:13:43.941Z,36.43
2018-03-21T07:16:22.547Z,36.17
2018-03-21T07:18:48.940Z,35.57
2018-03-21T07:21:15.347Z,33.37
2018-03-21T07:23:42.520Z,33.70
2018-03-21T07:26:08.920Z,36.60
2018-03-21T07:28:35.327Z,32.90
2018-03-21T07:31:01.737Z,35.30
2018-03-21T07:33:28.847Z,32.27
2018-03-21T07:35:56.729Z,34.87
2018-03-21T07:38:23.862Z,33.80
2018-03-21T07:40:51.719Z,32.97
2018-03-21T07:43:18.106Z,19.33
2018-03-21T07:45:44.641Z,24.13
2018-03-21T07:48:11.026Z,28.17
2018-03-21T07:50:38.211Z,49.33
2018-03-21T07:53:04.633Z,20.50
2018-03-21T07:55:31.797Z,16.87
2018-03-21T07:57:58.184Z,39.50
2018-03-21T08:00:24.580Z,16.27
2018-03-21T08:02:50.967Z,16.00
2018-03-21T08:05:18.106Z,14.27
2018-03-21T08:07:44.471Z,13.33
2018-03-21T08:10:10.866Z,12.60
2018-03-21T08:12:37.254Z,13.40
2018-03-21T08:15:03.658Z,10.67
2018-03-21T08:17:30.126Z,11.60
2018-03-21T08:19:56.568Z,11.77
2018-03-21T08:22:22.953Z,11.17
2018-03-21T08:24:49.360Z,13.20
2018-03-21T08:27:16.504Z,10.43
2018-03-21T08:29:42.904Z,10.93
2018-03-21T08:32:09.342Z,10.20
2018-03-21T08:34:36.533Z,12.00
2018-03-21T08:37:03.667Z,11.30
2018-03-21T08:39:30.086Z,11.60
2018-03-21T08:41:56.493Z,11.17
2018-03-21T08:44:22.881Z,12.27
2018-03-21T08:46:50.041Z,11.07
2018-03-21T08:49:16.463Z,12.97
2018-03-21T08:51:43.623Z,8.87
2018-03-21T08:54:10.888Z,8.97
2018-03-21T08:56:50.620Z,9.20
2018-03-21T08:59:31.482Z,9.80
2018-03-21T09:02:09.426Z,8.33
2018-03-21T09:04:35.855Z,7.83
2018-03-21T09:07:02.313Z,10.10
2018-03-21T09:09:28.696Z,10.20
2018-03-21T09:11:55.104Z,8.60
2018-03-21T09:14:21.500Z,8.03
2018-03-21T09:16:48.003Z,11.20
2018-03-21T09:19:14.407Z,6.47
2018-03-21T09:21:41.541Z,6.00
2018-03-21T09:24:07.960Z,7.60
2018-03-21T09:26:34.335Z,7.20
2018-03-21T09:29:01.461Z,7.43
2018-03-21T09:31:29.337Z,9.60
2018-03-21T09:33:56.495Z,6.70
2018-03-21T09:36:23.673Z,7.57
2018-03-21T09:38:50.082Z,7.90
2018-03-21T09:41:17.228Z,8.67
2018-03-21T09:43:44.436Z,8.53
2018-03-21T09:46:10.874Z,9.10
2018-03-21T09:48:37.302Z,8.53
2018-03-21T09:51:03.724Z,9.80
2018-03-21T09:53:30.121Z,9.00
2018-03-21T09:55:56.512Z,8.77
2018-03-21T09:58:22.903Z,8.00
2018-03-21T10:00:50.016Z,8.37
2018-03-21T10:03:17.143Z,8.20
2018-03-21T10:05:45.017Z,8.90
2018-03-21T10:08:12.156Z,7.57
2018-03-21T10:10:38.574Z,7.20
2018-03-21T10:13:04.975Z,8.97
2018-03-21T10:15:31.406Z,7.10
2018-03-21T10:17:57.782Z,6.90
2018-03-21T10:20:24.187Z,7.00
2018-03-21T10:22:50.601Z,7.90
2018-03-21T10:25:17.016Z,16.73
2018-03-21T10:27:44.162Z,7.83
2018-03-21T10:30:11.305Z,7.83
2018-03-21T10:32:38.469Z,7.90
2018-03-21T10:35:04.874Z,7.87
2018-03-21T10:37:31.288Z,8.20
2018-03-21T10:39:57.676Z,7.43
2018-03-21T10:42:24.068Z,9.03
2018-03-21T10:44:50.498Z,8.23
2018-03-21T10:47:17.667Z,7.10
2018-03-21T10:49:44.843Z,7.80
2018-03-21T10:52:11.381Z,6.77
2018-03-21T10:54:37.825Z,6.83
2018-03-21T10:57:04.242Z,6.70
2018-03-21T10:59:30.695Z,6.70
2018-03-21T11:02:03.204Z,6.83
2018-03-21T11:04:29.685Z,9.97
2018-03-21T11:06:56.080Z,7.40
2018-03-21T11:09:23.246Z,8.30
2018-03-21T11:11:50.484Z,9.13
2018-03-21T11:14:16.973Z,9.27
2018-03-21T11:16:43.396Z,9.83
2018-03-21T11:19:09.869Z,10.07
2018-03-21T11:21:36.246Z,9.27
2018-03-21T11:24:02.699Z,7.97
2018-03-21T11:26:29.094Z,7.80
2018-03-21T11:28:56.265Z,8.00
2018-03-21T11:31:22.652Z,7.13
2018-03-21T11:33:49.055Z,8.03
2018-03-21T11:36:15.459Z,6.87
2018-03-21T11:38:41.860Z,7.33
2018-03-21T11:41:09.741Z,6.50
2018-03-21T11:43:36.930Z,6.00
2018-03-21T11:46:03.372Z,8.60
2018-03-21T11:48:29.778Z,6.40
2018-03-21T11:50:56.166Z,6.87
2018-03-21T11:53:24.051Z,7.33
2018-03-21T11:55:51.193Z,6.87
2018-03-21T11:58:18.343Z,7.50
2018-03-21T12:00:45.478Z,6.60
2018-03-21T12:03:11.873Z,6.57
2018-03-21T12:05:38.289Z,6.77
2018-03-21T12:08:04.713Z,6.00
2018-03-21T12:10:31.113Z,5.73
2018-03-21T12:12:57.537Z,6.20
2018-03-21T12:15:24.684Z,7.40
2018-03-21T12:17:51.102Z,6.10
2018-03-21T12:20:17.515Z,5.30
2018-03-21T12:22:43.911Z,5.93
2018-03-21T12:25:10.369Z,9.57
2018-03-21T12:27:36.753Z,31.70
2018-03-21T12:30:03.176Z,6.07
2018-03-21T12:32:31.048Z,5.50
2018-03-21T12:34:57.446Z,5.63
2018-03-21T12:37:23.829Z,5.47
2018-03-21T12:39:50.965Z,5.63
2018-03-21T12:42:17.360Z,5.73
2018-03-21T12:44:43.812Z,6.77
2018-03-21T12:47:10.151Z,5.73
2018-03-21T12:49:36.539Z,6.53
2018-03-21T12:52:02.924Z,5.93
2018-03-21T12:54:29.331Z,5.40
2018-03-21T12:56:55.727Z,5.90
2018-03-21T12:59:22.879Z,5.70
2018-03-21T13:01:49.289Z,5.90
2018-03-21T13:04:16.405Z,5.10
2018-03-21T13:06:42.797Z,6.10
2018-03-21T13:09:09.178Z,6.30
2018-03-21T13:11:35.539Z,5.73
2018-03-21T13:14:02.696Z,6.10
2018-03-21T13:16:29.104Z,6.20
2018-03-21T13:18:55.848Z,6.07
2018-03-21T13:21:22.976Z,5.57
2018-03-21T13:23:50.143Z,5.53
2018-03-21T13:26:17.267Z,5.70
2018-03-21T13:28:43.657Z,4.70
2018-03-21T13:31:10.373Z,4.70
2018-03-21T13:33:37.521Z,5.03
2018-03-21T13:36:04.701Z,5.83
2018-03-21T13:38:31.089Z,5.60
2018-03-21T13:40:57.476Z,5.27
2018-03-21T13:43:23.868Z,6.37
2018-03-21T13:45:51.025Z,4.83
2018-03-21T13:48:18.202Z,4.40
2018-03-21T13:50:44.595Z,4.70
2018-03-21T13:53:11.037Z,4.63
2018-03-21T13:55:38.160Z,5.40
2018-03-21T13:58:04.554Z,4.50
2018-03-21T14:00:30.975Z,5.83
2018-03-21T14:02:57.370Z,4.87
2018-03-21T14:05:24.529Z,4.57
2018-03-21T14:07:50.918Z,4.37
2018-03-21T14:10:17.316Z,4.80
2018-03-21T14:12:43.752Z,4.10
2018-03-21T14:15:10.159Z,4.97
2018-03-21T14:17:37.323Z,4.07
2018-03-21T14:20:04.515Z,4.13
2018-03-21T14:22:30.925Z,4.40
2018-03-21T14:24:57.322Z,4.87
2018-03-21T14:27:24.480Z,4.70
2018-03-21T14:29:51.643Z,4.30
2018-03-21T14:32:18.051Z,8.27
2018-03-21T14:34:45.207Z,4.60
2018-03-21T14:37:12.358Z,4.40
2018-03-21T14:39:39.579Z,6.70
2018-03-21T14:42:06.033Z,4.70
2018-03-21T14:44:32.434Z,4.13
2018-03-21T14:46:58.835Z,5.23
2018-03-21T14:49:25.303Z,3.77
2018-03-21T14:51:51.653Z,4.70
2018-03-21T14:54:18.077Z,4.00
2018-03-21T14:56:44.465Z,3.33
2018-03-21T14:59:10.864Z,4.33
2018-03-21T15:01:38.012Z,4.03
2018-03-21T15:04:04.459Z,3.87
2018-03-21T15:06:30.864Z,3.77
2018-03-21T15:08:57.247Z,3.83
2018-03-21T15:11:23.658Z,4.67
2018-03-21T15:13:50.056Z,4.43
2018-03-21T15:16:16.477Z,4.03
2018-03-21T15:18:44.452Z,3.57
2018-03-21T15:21:10.870Z,3.20
2018-03-21T15:23:37.273Z,3.80
2018-03-21T15:26:03.679Z,3.77
2018-03-21T15:28:30.139Z,3.30
2018-03-21T15:30:56.575Z,3.40
2018-03-21T15:33:22.968Z,3.40
2018-03-21T15:35:49.340Z,4.80
2018-03-21T15:38:15.753Z,3.60
2018-03-21T15:40:43.160Z,4.80
2018-03-21T15:43:09.597Z,4.07
2018-03-21T15:45:36.063Z,4.20
2018-03-21T15:48:03.265Z,3.40
2018-03-21T15:50:29.672Z,4.20
2018-03-21T15:52:56.104Z,4.23
2018-03-21T15:55:22.474Z,4.10
2018-03-21T15:57:48.848Z,4.57
2018-03-21T16:00:15.272Z,3.50
2018-03-21T16:02:42.379Z,4.60
2018-03-21T16:05:08.807Z,7.77
2018-03-21T16:07:35.192Z,4.10
2018-03-21T16:10:02.359Z,4.90
2018-03-21T16:12:28.749Z,4.13
2018-03-21T16:14:56.638Z,4.57
2018-03-21T16:17:23.778Z,6.30
2018-03-21T16:19:50.159Z,3.90
2018-03-21T16:22:16.529Z,4.33
2018-03-21T16:24:42.916Z,7.83
2018-03-21T16:27:09.310Z,3.43
2018-03-21T16:29:35.768Z,4.23
2018-03-21T16:32:02.186Z,4.40
2018-03-21T16:34:29.447Z,4.13
2018-03-21T16:36:56.608Z,4.67
2018-03-21T16:39:22.975Z,5.10
2018-03-21T16:41:49.350Z,4.77
2018-03-21T16:44:16.552Z,4.03
2018-03-21T16:46:42.945Z,4.10
2018-03-21T16:49:09.412Z,3.47
2018-03-21T16:51:35.794Z,4.17
2018-03-21T16:54:02.977Z,4.00
2018-03-21T16:56:29.391Z,4.87
2018-03-21T16:58:56.542Z,4.20
2018-03-21T17:01:22.974Z,4.83
2018-03-21T17:03:49.368Z,4.00
2018-03-21T17:06:15.812Z,4.20
2018-03-21T17:08:42.205Z,4.70
2018-03-21T17:11:08.592Z,4.87
2018-03-21T17:13:35.716Z,4.30
2018-03-21T17:16:02.125Z,4.10
2018-03-21T17:18:28.498Z,4.50
2018-03-21T17:20:55.624Z,6.20
2018-03-21T17:23:21.997Z,5.97
2018-03-21T17:25:48.413Z,5.50
2018-03-21T17:28:14.954Z,4.93
2018-03-21T17:30:41.336Z,4.70
2018-03-21T17:33:07.748Z,6.07
2018-03-21T17:35:34.136Z,4.70
2018-03-21T17:38:00.573Z,4.20
2018-03-21T17:40:27.719Z,4.77
2018-03-21T17:42:54.844Z,4.50
2018-03-21T17:45:21.235Z,3.83
2018-03-21T17:47:47.724Z,5.73
2018-03-21T17:50:14.116Z,4.90
2018-03-21T17:52:40.516Z,5.20
2018-03-21T17:55:07.706Z,6.83
2018-03-21T17:57:34.102Z,6.77
2018-03-21T18:00:00.504Z,7.80
2018-03-21T18:02:27.654Z,8.23
2018-03-21T18:04:54.811Z,7.00
2018-03-21T18:07:21.982Z,7.93
2018-03-21T18:09:48.336Z,7.40
2018-03-21T18:12:14.712Z,7.87
2018-03-21T18:14:41.120Z,10.33
2018-03-21T18:17:07.516Z,16.10
2018-03-21T18:19:33.936Z,14.97
2018-03-21T18:22:01.057Z,13.93
2018-03-21T18:24:28.174Z,13.30
2018-03-21T18:26:54.590Z,10.60
2018-03-21T18:29:20.984Z,8.93
2018-03-21T18:31:47.377Z,6.80
2018-03-21T18:34:13.774Z,4.60
2018-03-21T18:36:40.183Z,5.90
2018-03-21T18:39:07.376Z,5.80
2018-03-21T18:41:33.824Z,5.97
2018-03-21T18:44:00.256Z,6.90
2018-03-21T18:46:26.657Z,12.20
2018-03-21T18:48:53.046Z,11.20
2018-03-21T18:51:19.488Z,8.00
2018-03-21T18:53:45.883Z,9.60
2018-03-21T18:56:12.283Z,13.47
2018-03-21T18:58:38.720Z,22.90
2018-03-21T19:01:05.147Z,10.43
2018-03-21T19:03:31.534Z,10.87
2018-03-21T19:05:58.009Z,9.37
2018-03-21T19:08:24.423Z,8.70
2018-03-21T19:10:51.547Z,7.80
2018-03-21T19:13:20.149Z,7.30
2018-03-21T19:15:44.410Z,25.10
2018-03-21T19:18:10.799Z,11.67
2018-03-21T19:20:37.311Z,6.70
2018-03-21T19:23:03.734Z,10.70
2018-03-21T19:25:30.895Z,5.70
2018-03-21T19:27:58.066Z,5.57
2018-03-21T19:30:24.504Z,5.45
2018-03-21T19:32:50.906Z,5.85
2018-03-21T19:35:18.050Z,5.95
2018-03-21T19:37:44.443Z,5.80
2018-03-21T19:40:10.873Z,7.45
2018-03-21T19:42:37.278Z,8.30
2018-03-21T19:45:03.717Z,9.77
2018-03-21T19:47:30.107Z,11.43
2018-03-21T19:49:57.251Z,11.45
2018-03-21T19:52:23.651Z,12.48
2018-03-21T19:54:50.061Z,9.32
2018-03-21T19:57:16.469Z,9.80
2018-03-21T19:59:42.946Z,14.23
2018-03-21T20:02:09.360Z,30.65
2018-03-21T20:04:35.761Z,18.45
2018-03-21T20:07:02.923Z,16.20
2018-03-21T20:09:29.335Z,11.23
2018-03-21T20:11:56.485Z,9.93
2018-03-21T20:14:23.683Z,11.10
2018-03-21T20:16:50.115Z,9.10
2018-03-21T20:19:17.265Z,8.73
2018-03-21T20:21:43.671Z,8.43
2018-03-21T20:24:10.096Z,6.80
2018-03-21T20:26:36.494Z,6.93
2018-03-21T20:29:02.923Z,7.43
2018-03-21T20:31:29.324Z,8.40
2018-03-21T20:33:55.720Z,8.30
2018-03-21T20:36:22.844Z,8.93
2018-03-21T20:38:49.304Z,10.93
2018-03-21T20:41:16.460Z,6.97
2018-03-21T20:43:43.601Z,9.35
2018-03-21T20:46:10.735Z,10.80
2018-03-21T20:48:37.149Z,8.23
2018-03-21T20:51:03.586Z,7.87
2018-03-21T20:53:29.961Z,10.38
2018-03-21T20:55:57.094Z,11.68
2018-03-21T20:58:23.490Z,11.15
2018-03-21T21:00:49.908Z,11.70
2018-03-21T21:03:16.316Z,9.85
2018-03-21T21:05:42.864Z,10.05
2018-03-21T21:08:09.244Z,10.85
2018-03-21T21:10:35.619Z,11.30
2018-03-21T21:13:02.002Z,9.95
2018-03-21T21:15:28.476Z,10.57
2018-03-21T21:17:54.891Z,9.38
2018-03-21T21:20:22.094Z,10.55
2018-03-21T21:22:48.474Z,9.18
2018-03-21T21:25:15.620Z,9.80
2018-03-21T21:27:42.755Z,9.43
2018-03-21T21:30:09.137Z,9.50
2018-03-21T21:32:35.545Z,11.65
2018-03-21T21:35:02.715Z,9.73
2018-03-21T21:37:29.162Z,9.38
2018-03-21T21:39:55.626Z,9.85
2018-03-21T21:42:22.060Z,13.57
2018-03-21T21:44:49.263Z,11.40
2018-03-21T21:47:15.740Z,11.15
2018-03-21T21:49:42.501Z,9.75
2018-03-21T21:52:09.631Z,10.60
2018-03-21T21:54:36.024Z,10.35
2018-03-21T21:57:02.441Z,9.32
2018-03-21T21:59:28.824Z,8.88
2018-03-21T22:01:55.225Z,9.43
2018-03-21T22:04:21.629Z,10.05
2018-03-21T22:06:48.750Z,9.82
2018-03-21T22:09:15.186Z,11.75
2018-03-21T22:11:41.572Z,12.60
2018-03-21T22:14:08.118Z,11.80
2018-03-21T22:16:34.524Z,13.30
2018-03-21T22:19:00.912Z,12.50
2018-03-21T22:21:27.291Z,13.85
2018-03-21T22:23:53.687Z,11.50
2018-03-21T22:26:20.063Z,11.20
2018-03-21T22:28:46.451Z,11.40
2018-03-21T22:31:13.581Z,11.77
2018-03-21T22:33:40.067Z,11.43
2018-03-21T22:36:06.486Z,12.30
2018-03-21T22:38:33.617Z,10.13
2018-03-21T22:41:00.753Z,12.50
2018-03-21T22:43:27.914Z,12.57
2018-03-21T22:45:55.036Z,11.45
2018-03-21T22:48:21.436Z,10.57
2018-03-21T22:50:47.821Z,11.25
2018-03-21T22:53:14.196Z,12.18
2018-03-21T22:55:40.592Z,12.27
2018-03-21T22:58:07.735Z,11.00
2018-03-21T23:00:34.863Z,11.02
2018-03-21T23:03:01.252Z,11.65
2018-03-21T23:05:27.654Z,13.50
2018-03-21T23:07:54.852Z,11.98
2018-03-21T23:10:21.247Z,13.00
2018-03-21T23:12:48.366Z,11.02
2018-03-21T23:15:14.819Z,12.98
2018-03-21T23:17:41.967Z,10.27
2018-03-21T23:20:08.335Z,10.30
2018-03-21T23:22:34.714Z,10.40
2018-03-21T23:25:01.095Z,11.30
2018-03-21T23:27:27.532Z,10.27
2018-03-21T23:29:53.930Z,11.57
2018-03-21T23:32:21.126Z,13.30
2018-03-21T23:34:47.500Z,11.30
2018-03-21T23:37:13.906Z,11.88
2018-03-21T23:39:40.307Z,11.23
2018-03-21T23:42:06.704Z,11.07
2018-03-21T23:44:33.097Z,12.27
2018-03-21T23:46:59.549Z,13.05
2018-03-21T23:49:25.954Z,12.50
2018-03-21T23:51:52.369Z,13.90
2018-03-21T23:54:18.757Z,11.05
2018-03-21T23:56:45.158Z,12.02
2018-03-21T23:59:11.564Z,11.07
